Terminal Aerodrome Forecast
Issued by NWS

Home | Current Version | Previous Version | Text Only | Print | Product List | Glossary On
Versions: 1 2 3 4 5 6 7 8 9 10 11 12
000
FTUS46 KPDT 041726
TAFALW
TAF
KALW 041726Z 0418/0518 22015KT P6SM FEW100
     FM042100 24014G21KT P6SM SCT100
     FM050400 19006KT P6SM SKC=

USA.gov is the U.S. government's official web portal to all federal, state and local government web resources and services.